Time;durP1;ratioP1;P1;durP2;ratioP2;P2;SDS_P1;SDS_P2;PMS_P1;PMS_P2;Temp;Humidity;BMP_temperature;BMP_pressure;BME280_temperature;BME280_humidity;BME280_pressure;Samples;Min_cycle;Max_cycle;Signal;HPM_P1;HPM_P2
2021/09/03 00:00:25;;;;;;;7.72;3.50;;;;;;;13.91;70.33;101876.88;1648317;87;21156;-82
2021/09/03 00:02:51;;;;;;;5.00;3.50;;;;;;;13.89;70.54;101874.84;1648463;87;21020;-80
2021/09/03 00:05:20;;;;;;;4.60;3.05;;;;;;;13.89;70.60;101885.73;1602470;87;21099;-81
2021/09/03 00:07:48;;;;;;;6.10;3.35;;;;;;;13.86;70.65;101880.70;1648219;87;21094;-83
2021/09/03 00:10:16;;;;;;;6.72;3.58;;;;;;;13.81;70.79;101879.70;1648468;87;21086;-77
2021/09/03 00:12:45;;;;;;;5.90;2.90;;;;;;;13.77;70.86;101883.41;1648447;87;20983;-84
2021/09/03 00:15:14;;;;;;;4.62;2.95;;;;;;;13.72;71.04;101888.89;1648388;87;20963;-77
2021/09/03 00:17:41;;;;;;;7.17;3.30;;;;;;;13.70;71.12;101892.53;1648286;87;21636;-84
2021/09/03 00:20:10;;;;;;;4.97;2.80;;;;;;;13.65;71.29;101892.82;1648183;87;21067;-79
2021/09/03 00:22:37;;;;;;;6.62;2.98;;;;;;;13.60;71.40;101885.71;1648296;87;21042;-80
2021/09/03 00:25:06;;;;;;;5.50;3.02;;;;;;;13.56;71.57;101892.52;1648527;87;21157;-83
2021/09/03 00:27:32;;;;;;;7.30;3.27;;;;;;;13.51;71.76;101891.94;1648421;87;20976;-78
2021/09/03 00:29:59;;;;;;;6.00;2.92;;;;;;;13.46;72.01;101892.22;1659095;86;21056;-83
2021/09/03 00:32:26;;;;;;;5.22;2.95;;;;;;;13.42;72.20;101889.41;1660915;86;21147;-86
2021/09/03 00:34:52;;;;;;;8.03;3.22;;;;;;;13.41;72.29;101885.58;1661343;86;20977;-82
2021/09/03 00:37:19;;;;;;;5.87;2.95;;;;;;;13.39;72.39;101883.53;1661212;86;21153;-81
2021/09/03 00:39:47;;;;;;;6.42;3.08;;;;;;;13.35;72.50;101885.47;1661573;86;21581;-85
2021/09/03 00:42:14;;;;;;;6.75;3.00;;;;;;;13.32;72.68;101879.14;1661346;86;20944;-83
2021/09/03 00:44:41;;;;;;;5.50;2.83;;;;;;;13.27;72.77;101883.79;1662161;86;21130;-80
2021/09/03 00:47:08;;;;;;;5.65;2.92;;;;;;;13.23;72.95;101882.28;1663269;86;20967;-84
2021/09/03 00:49:35;;;;;;;5.65;3.20;;;;;;;13.20;73.12;101878.55;1661933;86;21151;-84
2021/09/03 00:52:06;;;;;;;5.15;3.08;;;;;;;13.17;73.18;101883.94;1661236;86;20888;-77
2021/09/03 00:54:33;;;;;;;6.00;3.67;;;;;;;13.12;73.32;101884.19;1661284;86;20941;-84
2021/09/03 00:57:00;;;;;;;5.33;2.62;;;;;;;13.09;73.43;101888.73;1661201;86;21056;-84
2021/09/03 00:59:27;;;;;;;5.53;2.83;;;;;;;13.04;73.47;101888.13;1660968;86;21080;-85
2021/09/03 01:01:56;;;;;;;4.95;2.70;;;;;;;13.01;73.59;101891.77;1661229;86;21173;-84
2021/09/03 01:04:23;;;;;;;9.30;3.30;;;;;;;12.99;73.69;101890.98;1661055;86;21589;-79
2021/09/03 01:06:51;;;;;;;3.83;2.67;;;;;;;12.98;73.74;101897.15;1661291;86;21499;-77
2021/09/03 01:09:19;;;;;;;5.45;3.00;;;;;;;12.97;73.79;101894.16;1661449;86;21538;-82
2021/09/03 01:11:48;;;;;;;3.42;2.47;;;;;;;12.94;73.83;101899.54;1661491;86;21088;-87
2021/09/03 01:14:16;;;;;;;4.53;2.60;;;;;;;12.87;73.93;101902.11;1661242;86;21214;-88
2021/09/03 01:16:44;;;;;;;5.70;2.85;;;;;;;12.81;74.01;101897.70;1661167;86;20880;-83
2021/09/03 01:19:11;;;;;;;5.83;3.35;;;;;;;12.71;74.23;101899.52;1661392;86;21542;-80
2021/09/03 01:21:38;;;;;;;5.95;3.22;;;;;;;12.67;74.46;101903.20;1661097;86;21122;-83
2021/09/03 01:24:05;;;;;;;5.10;3.05;;;;;;;12.61;74.51;101900.09;1661335;86;21438;-82
2021/09/03 01:26:33;;;;;;;4.12;2.52;;;;;;;12.56;74.73;101903.42;1661251;86;21116;-81
2021/09/03 01:29:00;;;;;;;6.92;3.05;;;;;;;12.52;74.83;101895.39;1657361;86;20932;-82
2021/09/03 01:31:27;;;;;;;5.08;2.87;;;;;;;12.50;74.89;101898.09;1648105;87;21593;-80
2021/09/03 01:33:57;;;;;;;5.03;3.10;;;;;;;12.48;74.76;101896.47;1648450;87;21036;-82
2021/09/03 01:36:29;;;;;;;4.20;2.75;;;;;;;12.45;74.78;101895.34;1648305;87;20935;-83
2021/09/03 01:38:59;;;;;;;5.67;2.65;;;;;;;12.37;74.87;101898.83;1648233;87;21550;-82
2021/09/03 01:41:26;;;;;;;6.40;2.85;;;;;;;12.30;74.95;101897.47;1647106;87;21069;-80
2021/09/03 01:43:52;;;;;;;3.75;2.33;;;;;;;12.25;74.98;101899.50;1648344;87;20983;-86
2021/09/03 01:46:19;;;;;;;5.47;3.20;;;;;;;12.20;75.01;101908.37;1648095;87;21030;-83
2021/09/03 01:48:47;;;;;;;5.50;2.70;;;;;;;12.21;74.91;101909.22;1648241;87;21645;-81
2021/09/03 01:51:14;;;;;;;9.15;2.67;;;;;;;12.20;74.74;101912.28;1648374;87;21166;-86
2021/09/03 01:53:40;;;;;;;8.43;2.92;;;;;;;12.23;74.51;101909.97;1648164;87;21061;-85
2021/09/03 01:56:08;;;;;;;8.00;2.25;;;;;;;12.24;74.23;101899.95;1648160;87;21962;-79
2021/09/03 01:58:34;;;;;;;6.55;2.92;;;;;;;12.25;73.89;101901.64;1648276;87;21593;-86
2021/09/03 02:01:01;;;;;;;5.97;2.30;;;;;;;12.23;73.90;101898.72;1648165;87;21565;-82
2021/09/03 02:03:28;;;;;;;4.20;2.42;;;;;;;12.24;73.77;101897.80;1648160;87;21876;-82
2021/09/03 02:05:56;;;;;;;3.72;2.37;;;;;;;12.19;73.81;101891.53;1648292;87;20963;-82
2021/09/03 02:08:25;;;;;;;4.25;2.55;;;;;;;12.17;73.79;101899.89;1648489;87;21035;-87
2021/09/03 02:10:51;;;;;;;3.95;2.80;;;;;;;12.11;73.75;101901.06;1648193;87;21618;-83
2021/09/03 02:13:19;;;;;;;4.65;2.50;;;;;;;12.04;73.80;101902.30;1648461;87;21069;-82
2021/09/03 02:15:47;;;;;;;5.40;2.65;;;;;;;11.97;74.02;101905.29;1648453;87;21140;-78
2021/09/03 02:18:14;;;;;;;13.15;2.87;;;;;;;11.88;74.41;101907.07;1648283;87;21467;-87
2021/09/03 02:20:42;;;;;;;4.12;2.27;;;;;;;11.82;74.64;101904.78;1648237;87;21479;-79
2021/09/03 02:23:09;;;;;;;6.80;2.85;;;;;;;11.81;74.75;101903.94;1648203;87;21046;-83
2021/09/03 02:25:36;;;;;;;5.87;2.80;;;;;;;11.83;74.80;101900.82;1648115;87;21089;-78
2021/09/03 02:28:04;;;;;;;4.10;2.67;;;;;;;11.84;74.85;101902.97;1648230;87;21077;-84
2021/09/03 02:30:33;;;;;;;7.30;2.83;;;;;;;11.84;74.97;101915.48;1646314;86;20979;-80
2021/09/03 02:33:02;;;;;;;5.47;2.67;;;;;;;11.85;75.05;101910.67;1646098;87;20967;-79
2021/09/03 02:35:29;;;;;;;5.33;2.72;;;;;;;11.85;75.20;101910.67;1646335;87;21003;-80
2021/09/03 02:37:57;;;;;;;5.28;3.02;;;;;;;11.87;75.33;101906.22;1646298;87;21608;-81
2021/09/03 02:40:25;;;;;;;6.40;2.80;;;;;;;11.90;75.45;101903.95;1646359;87;21142;-81
2021/09/03 02:42:51;;;;;;;5.95;2.77;;;;;;;11.90;75.56;101901.34;1648354;87;20975;-85
2021/09/03 02:45:19;;;;;;;6.40;3.10;;;;;;;11.87;75.64;101903.63;1648077;87;21118;-81
2021/09/03 02:47:47;;;;;;;5.47;2.58;;;;;;;11.86;75.74;101903.27;1648515;87;21502;-80
2021/09/03 02:50:14;;;;;;;5.67;3.25;;;;;;;11.83;75.86;101909.08;1646549;86;21009;-80
2021/09/03 02:52:43;;;;;;;6.72;3.00;;;;;;;11.82;76.19;101916.49;1646200;86;21026;-78
2021/09/03 02:55:11;;;;;;;5.90;3.12;;;;;;;11.78;76.53;101917.10;1646161;86;20936;-82
2021/09/03 02:57:38;;;;;;;4.72;3.37;;;;;;;11.74;76.76;101919.95;1646110;87;21059;-80
2021/09/03 03:00:06;;;;;;;7.28;2.92;;;;;;;11.72;77.24;101926.97;1646189;86;21039;-82
2021/09/03 03:02:33;;;;;;;4.12;2.60;;;;;;;11.68;77.50;101921.05;1646173;86;21030;-80
2021/09/03 03:05:00;;;;;;;7.83;2.90;;;;;;;11.66;77.71;101917.25;1646103;87;21142;-80
2021/09/03 03:07:26;;;;;;;5.40;2.67;;;;;;;11.68;77.90;101914.09;1646205;86;20981;-83
2021/09/03 03:09:54;;;;;;;5.05;2.55;;;;;;;11.68;77.99;101916.70;1646317;86;20943;-79
2021/09/03 03:12:21;;;;;;;6.03;3.42;;;;;;;11.70;78.14;101919.27;1645963;87;21024;-83
2021/09/03 03:14:48;;;;;;;4.92;2.85;;;;;;;11.69;78.28;101917.09;1646129;86;21600;-81
2021/09/03 03:17:20;;;;;;;5.95;2.50;;;;;;;11.69;78.52;101925.34;1646072;87;21154;-84
2021/09/03 03:19:47;;;;;;;6.58;2.98;;;;;;;11.69;78.76;101924.05;1645972;87;21086;-84
2021/09/03 03:22:14;;;;;;;5.33;2.90;;;;;;;11.66;78.97;101913.34;1646329;87;20900;-83
2021/09/03 03:24:40;;;;;;;6.28;3.55;;;;;;;11.65;79.25;101919.45;1646171;87;21695;-83
2021/09/03 03:27:07;;;;;;;5.72;2.95;;;;;;;11.62;79.55;101920.06;1646432;87;21031;-79
2021/09/03 03:29:34;;;;;;;5.85;3.17;;;;;;;11.58;79.83;101927.17;1646354;86;21183;-83
2021/09/03 03:32:01;;;;;;;7.28;3.85;;;;;;;11.54;80.31;101936.52;1646243;87;20932;-80
2021/09/03 03:34:28;;;;;;;5.22;2.90;;;;;;;11.49;80.69;101929.39;1646322;87;21083;-80
2021/09/03 03:36:57;;;;;;;5.87;2.90;;;;;;;11.48;81.19;101926.43;1646397;86;21012;-81
2021/09/03 03:39:24;;;;;;;9.30;3.40;;;;;;;11.47;81.63;101924.28;1646334;87;21502;-81
2021/09/03 03:41:52;;;;;;;6.45;3.17;;;;;;;11.49;81.87;101916.39;1646260;87;21815;-84
2021/09/03 03:44:20;;;;;;;8.73;3.37;;;;;;;11.51;81.84;101917.17;1646283;87;21011;-85
2021/09/03 03:46:48;;;;;;;10.35;3.72;;;;;;;11.50;81.91;101918.09;1646146;87;21585;-82
2021/09/03 03:49:15;;;;;;;7.08;2.80;;;;;;;11.53;82.02;101923.98;1646278;87;20984;-83
2021/09/03 03:51:42;;;;;;;8.65;3.50;;;;;;;11.56;82.17;101932.92;1646122;87;21082;-81
2021/09/03 03:54:10;;;;;;;5.12;2.95;;;;;;;11.57;82.20;101928.11;1646555;87;21165;-84
2021/09/03 03:56:36;;;;;;;10.05;3.40;;;;;;;11.57;82.31;101927.27;1646155;87;21106;-79
2021/09/03 03:59:04;;;;;;;7.47;3.67;;;;;;;11.55;82.49;101927.33;1646514;87;21542;-79
2021/09/03 04:01:30;;;;;;;4.15;2.83;;;;;;;11.52;82.70;101932.69;1646146;87;21082;-84
2021/09/03 04:03:59;;;;;;;4.45;2.87;;;;;;;11.51;82.82;101918.02;1646305;86;21546;-79
2021/09/03 04:06:26;;;;;;;4.92;3.05;;;;;;;11.54;82.89;101916.57;1646103;87;21165;-81
2021/09/03 04:08:52;;;;;;;5.55;3.08;;;;;;;11.59;82.90;101922.81;1646267;86;20932;-86
2021/09/03 04:11:20;;;;;;;5.45;3.20;;;;;;;11.62;82.87;101914.41;1646230;87;21043;-85
2021/09/03 04:13:48;;;;;;;5.60;3.02;;;;;;;11.65;82.86;101914.70;1646156;86;21134;-85
2021/09/03 04:16:16;;;;;;;6.58;3.90;;;;;;;11.68;82.86;101915.39;1646171;86;21057;-86
2021/09/03 04:18:45;;;;;;;9.78;3.08;;;;;;;11.73;82.83;101928.67;1646128;86;21586;-87
2021/09/03 04:21:13;;;;;;;5.40;3.17;;;;;;;11.78;82.86;101921.00;1646362;86;21465;-87
2021/09/03 04:23:40;;;;;;;7.72;3.95;;;;;;;11.83;82.79;101915.13;1646088;87;21553;-86
2021/09/03 04:26:07;;;;;;;6.25;3.47;;;;;;;11.87;82.65;101921.83;1646351;87;21469;-82
2021/09/03 04:28:34;;;;;;;9.05;3.17;;;;;;;11.91;82.58;101929.02;1646224;86;21058;-86
2021/09/03 04:31:01;;;;;;;7.65;3.75;;;;;;;11.96;82.52;101928.34;1657296;86;21765;-81
2021/09/03 04:33:28;;;;;;;4.80;3.20;;;;;;;12.01;82.34;101940.64;1661254;86;21036;-83
2021/09/03 04:35:55;;;;;;;6.47;3.20;;;;;;;12.07;82.10;101951.57;1661326;86;20853;-83
2021/09/03 04:38:22;;;;;;;5.62;3.67;;;;;;;12.09;81.57;101957.52;1661320;86;21047;-79
2021/09/03 04:40:49;;;;;;;5.80;3.17;;;;;;;12.12;81.58;101961.76;1661155;86;21051;-84
2021/09/03 04:43:16;;;;;;;7.30;3.33;;;;;;;12.13;81.55;101957.75;1661116;86;21567;-80
2021/09/03 04:45:43;;;;;;;7.30;2.98;;;;;;;12.18;81.53;101960.98;1661497;86;20987;-79
2021/09/03 04:48:10;;;;;;;8.23;3.42;;;;;;;12.25;81.56;101959.36;1661130;86;20991;-81
2021/09/03 04:50:38;;;;;;;12.95;3.95;;;;;;;12.32;81.51;101964.14;1660996;86;20952;-85
2021/09/03 04:53:04;;;;;;;6.28;3.52;;;;;;;12.39;81.34;101955.55;1661365;86;20956;-82
2021/09/03 04:55:32;;;;;;;8.53;3.80;;;;;;;12.45;81.16;101961.27;1661042;86;21221;-83
2021/09/03 04:57:59;;;;;;;6.67;3.52;;;;;;;12.51;80.89;101949.22;1661077;86;21563;-82
2021/09/03 05:00:27;;;;;;;4.85;3.05;;;;;;;12.58;80.72;101953.64;1661192;86;20944;-81
2021/09/03 05:02:53;;;;;;;5.72;3.50;;;;;;;12.63;80.50;101948.59;1661339;86;20951;-81
2021/09/03 05:05:20;;;;;;;7.58;3.75;;;;;;;12.70;80.40;101951.22;1660889;86;20924;-78
2021/09/03 05:07:47;;;;;;;8.15;3.60;;;;;;;12.78;80.25;101946.91;1661243;86;21137;-78
2021/09/03 05:10:14;;;;;;;5.30;2.98;;;;;;;12.84;80.20;101947.87;1661143;86;20892;-77
2021/09/03 05:12:41;;;;;;;6.33;3.20;;;;;;;12.91;79.82;101947.91;1661045;86;21574;-85
2021/09/03 05:15:13;;;;;;;7.72;3.22;;;;;;;13.01;79.43;101951.70;1661046;86;21598;-79
2021/09/03 05:17:50;;;;;;;5.12;3.27;;;;;;;13.10;78.77;101946.00;1661327;86;20973;-84
2021/09/03 05:20:18;;;;;;;6.35;3.47;;;;;;;13.18;78.97;101939.88;1661259;86;20968;-79
2021/09/03 05:22:47;;;;;;;4.95;3.25;;;;;;;13.26;78.72;101948.58;1660718;86;20999;-83
2021/09/03 05:25:25;;;;;;;7.87;3.62;;;;;;;13.35;78.21;101949.35;1642456;86;21035;-82
2021/09/03 05:27:54;;;;;;;10.08;3.70;;;;;;;13.41;77.84;101950.30;1661574;86;20941;-87
2021/09/03 05:30:24;;;;;;;8.13;3.22;;;;;;;13.55;77.12;101952.13;1661126;86;21498;-83
2021/09/03 05:32:53;;;;;;;6.45;3.05;;;;;;;13.65;76.51;101950.20;1661351;86;21126;-86
2021/09/03 05:35:24;;;;;;;5.90;3.30;;;;;;;13.76;76.24;101949.55;1662078;86;20984;-83
2021/09/03 05:37:59;;;;;;;13.35;4.15;;;;;;;13.87;75.93;101945.87;1661646;86;20996;-84
2021/09/03 05:40:29;;;;;;;10.72;3.35;;;;;;;13.96;75.40;101933.57;1661162;86;21008;-84
2021/09/03 05:42:56;;;;;;;8.38;3.52;;;;;;;14.05;74.53;101926.48;1661089;86;21011;-84
2021/09/03 05:45:24;;;;;;;11.35;4.00;;;;;;;14.14;73.26;101925.08;1661259;86;21177;-86
2021/09/03 05:47:54;;;;;;;10.50;4.37;;;;;;;14.27;72.36;101920.33;1661039;86;20977;-84
2021/09/03 05:50:21;;;;;;;5.67;2.65;;;;;;;14.40;71.60;101920.44;1660858;86;21032;-80
2021/09/03 05:52:50;;;;;;;8.58;3.10;;;;;;;14.50;69.78;101916.33;1661182;86;21575;-82
2021/09/03 05:55:16;;;;;;;10.53;2.85;;;;;;;14.55;68.70;101918.17;1661202;86;20892;-82
2021/09/03 05:57:45;;;;;;;7.83;3.12;;;;;;;14.62;68.19;101921.24;1660758;86;21133;-82
2021/09/03 06:00:13;;;;;;;7.20;3.02;;;;;;;14.67;68.04;101921.81;1716304;83;21521;-80
2021/09/03 06:02:41;;;;;;;7.15;2.98;;;;;;;14.75;67.25;101929.98;1715625;83;21898;-83
2021/09/03 06:05:10;;;;;;;6.12;2.40;;;;;;;14.83;65.98;101931.20;1683618;84;21020;-83
2021/09/03 06:07:38;;;;;;;9.65;3.00;;;;;;;14.91;65.46;101935.92;1665868;86;21576;-79
2021/09/03 06:10:06;;;;;;;8.88;3.55;;;;;;;14.96;65.20;101935.18;1674884;85;21155;-82
2021/09/03 06:12:36;;;;;;;7.08;3.90;;;;;;;15.02;64.00;101932.63;1636743;85;21545;-85
2021/09/03 06:15:08;;;;;;;6.08;3.87;;;;;;;15.09;63.49;101936.53;1676235;85;21637;-80
2021/09/03 06:17:55;;;;;;;6.30;4.10;;;;;;;15.18;62.97;101934.16;1656003;86;21122;-88
2021/09/03 06:20:21;;;;;;;8.40;4.17;;;;;;;15.27;62.25;101943.17;1758630;81;21082;-82
2021/09/03 06:22:48;;;;;;;12.88;4.08;;;;;;;15.35;61.85;101950.03;1758893;81;21138;-82
2021/09/03 06:25:18;;;;;;;7.22;3.55;;;;;;;15.41;61.50;101952.74;1759046;81;21012;-82
2021/09/03 06:27:45;;;;;;;12.30;5.42;;;;;;;15.47;61.08;101951.03;1755858;81;21060;-83
2021/09/03 06:30:12;;;;;;;12.47;4.62;;;;;;;15.55;58.78;101943.06;1758571;81;21095;-83
2021/09/03 06:32:41;;;;;;;10.08;4.65;;;;;;;15.63;58.73;101946.48;1759167;81;22094;-85
2021/09/03 06:35:09;;;;;;;15.72;4.20;;;;;;;15.68;58.52;101942.62;1757701;81;21134;-79
2021/09/03 06:37:36;;;;;;;8.73;3.62;;;;;;;15.76;58.28;101946.84;1753157;81;21580;-82
2021/09/03 06:40:04;;;;;;;8.78;4.15;;;;;;;15.83;57.28;101950.73;1740197;82;21067;-81
2021/09/03 06:42:32;;;;;;;9.55;4.03;;;;;;;15.92;55.54;101956.31;1740254;82;21117;-84
2021/09/03 06:45:00;;;;;;;7.03;2.90;;;;;;;16.00;54.26;101956.61;1740617;82;21067;-83
2021/09/03 06:47:27;;;;;;;6.37;3.20;;;;;;;16.06;54.22;101952.27;1740696;82;21160;-80
2021/09/03 06:49:56;;;;;;;6.10;2.60;;;;;;;16.12;53.61;101951.84;1740229;81;21058;-79
2021/09/03 06:52:29;;;;;;;6.62;2.27;;;;;;;16.19;51.89;101950.02;1740884;82;21003;-89
2021/09/03 06:54:58;;;;;;;5.72;2.27;;;;;;;16.28;50.56;101957.70;1741239;82;21095;-82
2021/09/03 06:57:28;;;;;;;6.33;2.50;;;;;;;16.34;50.66;101955.95;1737014;82;21557;-80
2021/09/03 07:00:00;;;;;;;8.35;2.58;;;;;;;16.38;50.94;101958.27;1695974;83;21062;-84
2021/09/03 07:02:29;;;;;;;5.45;2.30;;;;;;;16.45;50.56;101957.84;1682860;85;21071;-81
2021/09/03 07:04:56;;;;;;;3.02;2.02;;;;;;;16.50;50.22;101958.34;1720269;82;21565;-85
2021/09/03 07:07:22;;;;;;;5.75;1.87;;;;;;;16.55;50.09;101963.68;1706255;82;21047;-82
2021/09/03 07:09:52;;;;;;;5.28;2.20;;;;;;;16.63;48.07;101961.34;1711571;82;21113;-90
2021/09/03 07:12:22;;;;;;;3.22;1.90;;;;;;;16.69;48.33;101955.66;1712096;83;21050;-88
2021/09/03 07:14:50;;;;;;;6.95;2.33;;;;;;;16.74;47.50;101959.28;1711597;83;21522;-81
2021/09/03 07:17:17;;;;;;;4.37;2.00;;;;;;;16.77;47.03;101958.59;1712279;83;21207;-87
2021/09/03 07:19:44;;;;;;;4.70;1.80;;;;;;;16.80;46.55;101961.46;1711628;83;21526;-83
2021/09/03 07:22:11;;;;;;;4.83;2.10;;;;;;;16.81;47.15;101963.98;1712514;83;21098;-92
2021/09/03 07:24:42;;;;;;;2.95;2.05;;;;;;;16.84;47.73;101962.45;1712305;83;21011;-85
2021/09/03 07:27:12;;;;;;;4.40;2.08;;;;;;;16.93;47.96;101955.23;1712710;83;21019;-87
2021/09/03 07:29:41;;;;;;;8.70;2.40;;;;;;;17.00;48.46;101960.03;1710308;82;32698;-86
2021/09/03 07:32:08;;;;;;;5.28;2.10;;;;;;;17.05;48.35;101957.44;1695127;83;21083;-89
2021/09/03 07:34:35;;;;;;;4.15;2.27;;;;;;;17.17;46.58;101958.31;1726959;82;21062;-84
2021/09/03 07:37:04;;;;;;;5.60;2.10;;;;;;;17.26;46.85;101970.28;1715768;82;21765;-86
2021/09/03 07:39:34;;;;;;;5.83;1.80;;;;;;;17.33;46.63;101958.87;1705931;83;21701;-84
2021/09/03 07:42:01;;;;;;;5.45;1.75;;;;;;;17.37;46.86;101962.95;1706628;82;21079;-82
2021/09/03 07:44:28;;;;;;;4.42;1.62;;;;;;;17.40;47.07;101962.25;1719284;82;21075;-86
2021/09/03 07:46:55;;;;;;;5.55;2.02;;;;;;;17.45;47.51;101956.17;1702348;82;21004;-84
2021/09/03 07:49:22;;;;;;;4.47;1.70;;;;;;;17.51;47.63;101953.59;1712208;82;21161;-84
2021/09/03 07:51:51;;;;;;;8.53;2.40;;;;;;;17.57;46.11;101960.20;1741745;82;21028;-83
2021/09/03 07:54:20;;;;;;;3.25;2.22;;;;;;;17.68;45.56;101960.21;1737601;80;21391;-83
2021/09/03 07:56:52;;;;;;;7.37;2.77;;;;;;;17.75;45.78;101954.39;1724003;82;21030;-86
2021/09/03 07:59:32;;;;;;;4.78;1.85;;;;;;;17.82;45.03;101949.52;1721122;82;21131;-89
2021/09/03 08:02:04;;;;;;;4.80;1.70;;;;;;;17.89;45.16;101955.51;1711555;82;21542;-89
2021/09/03 08:04:33;;;;;;;4.92;1.62;;;;;;;17.93;42.20;101946.42;1723687;82;20985;-87
2021/09/03 08:07:07;;;;;;;4.53;1.75;;;;;;;17.99;43.02;101947.77;1709144;81;20995;-84
2021/09/03 08:09:39;;;;;;;2.98;1.70;;;;;;;18.06;40.73;101941.56;1692719;83;21007;-86
2021/09/03 08:12:08;;;;;;;4.70;1.60;;;;;;;18.13;41.19;101947.52;1727970;82;26781;-79
2021/09/03 08:14:37;;;;;;;4.75;1.60;;;;;;;18.19;40.64;101939.63;1742903;81;21536;-84
2021/09/03 08:17:09;;;;;;;7.35;1.87;;;;;;;18.24;41.50;101945.38;1741637;81;20995;-85
2021/09/03 08:19:38;;;;;;;4.40;2.08;;;;;;;18.32;41.43;101946.45;1738240;82;21521;-85
2021/09/03 08:22:07;;;;;;;3.27;1.70;;;;;;;18.36;40.73;101949.20;1735334;82;21049;-82
2021/09/03 08:24:35;;;;;;;4.42;1.60;;;;;;;18.43;41.05;101942.52;1736084;82;21547;-82
2021/09/03 08:27:11;;;;;;;3.92;2.42;;;;;;;18.48;41.11;101940.34;1736352;82;21149;-85
2021/09/03 08:29:44;;;;;;;4.80;2.12;;;;;;;18.54;42.90;101936.42;1709152;82;21094;-84
2021/09/03 08:32:14;;;;;;;4.12;2.60;;;;;;;18.57;43.16;101938.00;1736599;82;20993;-81
2021/09/03 08:34:41;;;;;;;4.97;2.15;;;;;;;18.56;43.32;101933.69;1734907;82;21615;-83
2021/09/03 08:37:08;;;;;;;3.95;1.90;;;;;;;18.58;43.04;101933.92;1734793;82;21620;-92
2021/09/03 08:39:35;;;;;;;10.18;2.80;;;;;;;18.56;43.47;101931.06;1734678;82;21808;-81
2021/09/03 08:42:03;;;;;;;3.83;2.30;;;;;;;18.59;43.52;101926.88;1734607;82;21022;-85
2021/09/03 08:44:35;;;;;;;5.17;2.45;;;;;;;18.67;43.80;101914.77;1734600;82;21046;-85
2021/09/03 08:47:05;;;;;;;3.98;2.10;;;;;;;18.78;43.91;101913.45;1735162;82;21706;-90
2021/09/03 08:49:34;;;;;;;5.10;2.30;;;;;;;18.90;43.09;101912.92;1710126;82;21046;-81
2021/09/03 08:52:01;;;;;;;6.40;2.17;;;;;;;18.95;40.86;101910.27;1733665;81;21079;-85
2021/09/03 08:54:28;;;;;;;3.92;2.50;;;;;;;18.97;40.74;101905.73;1731096;82;21041;-80
2021/09/03 08:56:57;;;;;;;3.08;2.22;;;;;;;18.92;38.73;101904.45;1691537;84;21017;-87
2021/09/03 08:59:24;;;;;;;7.22;2.40;;;;;;;18.81;39.97;101905.78;1676911;85;21118;-85
2021/09/03 09:02:19;;;;;;;10.98;2.85;;;;;;;18.86;40.46;101900.97;1691571;82;21817;-82
2021/09/03 09:04:53;;;;;;;4.28;2.60;;;;;;;19.01;40.50;101895.80;1735151;82;21022;-87
2021/09/03 09:07:24;;;;;;;6.60;2.33;;;;;;;19.17;39.38;101900.16;1717372;82;21034;-82
2021/09/03 09:09:53;;;;;;;3.80;2.40;;;;;;;19.27;39.77;101898.92;1663416;84;21575;-84
2021/09/03 09:12:23;;;;;;;7.10;2.50;;;;;;;19.33;38.74;101903.19;1677321;84;20998;-80
2021/09/03 09:15:09;;;;;;;4.47;3.05;;;;;;;19.32;38.39;101892.30;1676449;85;21093;-87
2021/09/03 09:17:41;;;;;;;3.95;2.35;;;;;;;19.36;39.37;101891.09;1676640;84;21056;-83
2021/09/03 09:20:11;;;;;;;5.03;2.77;;;;;;;19.43;39.28;101882.23;1677113;83;22126;-87
2021/09/03 09:22:57;;;;;;;4.08;2.60;;;;;;;19.53;39.54;101887.89;1653602;85;21527;-83
2021/09/03 09:25:28;;;;;;;9.33;3.05;;;;;;;19.65;39.43;101883.89;1695835;82;21536;-84
2021/09/03 09:27:57;;;;;;;10.05;2.87;;;;;;;19.74;39.30;101877.36;1708106;82;21056;-86
2021/09/03 09:30:27;;;;;;;6.03;3.10;;;;;;;19.88;38.81;101879.62;1671070;84;21087;-82
2021/09/03 09:33:17;;;;;;;4.03;2.75;;;;;;;19.87;37.95;101880.61;1705019;84;21057;-86
2021/09/03 09:35:56;;;;;;;6.37;2.72;;;;;;;19.81;38.50;101868.45;1704713;82;21299;-84
2021/09/03 09:38:33;;;;;;;4.60;2.92;;;;;;;19.77;38.60;101862.60;1678410;83;21033;-84
2021/09/03 09:41:07;;;;;;;7.60;2.85;;;;;;;19.79;38.61;101858.50;1676977;85;21064;-80
2021/09/03 09:43:39;;;;;;;6.60;3.40;;;;;;;19.83;39.21;101857.28;1676844;84;21256;-84
2021/09/03 09:46:22;;;;;;;8.08;2.87;;;;;;;19.92;38.26;101853.38;1677121;85;21112;-83
2021/09/03 09:49:02;;;;;;;9.80;3.60;;;;;;;20.33;38.54;101846.31;1676951;84;20996;-83
2021/09/03 09:51:48;;;;;;;6.37;3.15;;;;;;;21.42;36.25;101851.70;1677153;85;21073;-87
2021/09/03 09:54:23;;;;;;;5.85;3.70;;;;;;;22.34;34.18;101836.73;1681127;84;21050;-87
2021/09/03 09:56:58;;;;;;;4.92;2.83;;;;;;;22.80;33.38;101845.00;1724611;82;21161;-85
2021/09/03 09:59:28;;;;;;;7.72;3.02;;;;;;;23.09;32.33;101836.80;1734436;82;21105;-83
2021/09/03 10:02:02;;;;;;;9.28;3.05;;;;;;;23.85;31.78;101835.16;1733232;81;21093;-82
2021/09/03 10:04:31;;;;;;;5.58;3.05;;;;;;;24.79;30.32;101827.80;1735121;82;21124;-87
2021/09/03 10:07:17;;;;;;;7.60;3.12;;;;;;;25.75;29.36;101824.72;1735775;82;21078;-86
2021/09/03 10:09:48;;;;;;;5.47;2.40;;;;;;;26.60;27.15;101823.78;1736226;82;21161;-82
2021/09/03 10:12:15;;;;;;;4.05;2.50;;;;;;;27.72;25.99;101816.27;1737208;82;20987;-76
2021/09/03 10:14:50;;;;;;;3.30;2.25;;;;;;;28.49;25.40;101824.08;1735271;81;20982;-89
2021/09/03 10:17:32;;;;;;;4.55;2.58;;;;;;;28.89;23.49;101818.61;1724191;82;21049;-81
2021/09/03 10:20:04;;;;;;;10.03;2.77;;;;;;;28.58;23.20;101814.09;1708513;82;21086;-86
2021/09/03 10:22:46;;;;;;;4.12;2.62;;;;;;;28.43;24.21;101814.16;1686573;82;21010;-84
2021/09/03 10:25:14;;;;;;;6.15;2.55;;;;;;;28.26;24.18;101812.73;1689300;84;21114;-82
2021/09/03 10:27:41;;;;;;;4.85;2.87;;;;;;;27.80;24.14;101802.81;1702163;84;21842;-82
2021/09/03 10:30:14;;;;;;;4.08;2.50;;;;;;;26.81;25.32;101808.48;1682364;82;21110;-83
2021/09/03 10:32:45;;;;;;;3.62;2.33;;;;;;;26.05;26.58;101817.27;1734106;82;21129;-82
2021/09/03 10:35:17;;;;;;;5.90;2.80;;;;;;;24.92;27.18;101815.39;1733521;82;21758;-81
2021/09/03 10:37:44;;;;;;;;;;;;;;;23.85;28.73;101822.39;1735599;82;21017;-82
2021/09/03 10:40:16;;;;;;;10.95;3.37;;;;;;;23.33;29.59;101811.80;1733031;82;20212;-81
2021/09/03 10:42:45;;;;;;;10.78;3.58;;;;;;;22.98;30.50;101826.45;1701923;84;21087;-85
2021/09/03 10:45:22;;;;;;;5.30;2.90;;;;;;;22.70;31.75;101817.78;1732700;82;21108;-81
2021/09/03 10:48:08;;;;;;;7.03;3.02;;;;;;;22.57;32.05;101814.64;1733229;82;21218;-82
2021/09/03 10:50:54;;;;;;;4.62;2.65;;;;;;;22.37;31.59;101817.11;1660287;84;21102;-83
2021/09/03 10:53:37;;;;;;;8.03;2.60;;;;;;;22.14;32.32;101803.47;1702329;83;21013;-82
2021/09/03 10:56:27;;;;;;;5.25;2.85;;;;;;;21.94;33.30;101805.38;1671927;84;21178;-82
2021/09/03 10:59:00;;;;;;;4.55;2.52;;;;;;;21.91;33.12;101804.36;1704106;82;20879;-89
2021/09/03 11:01:30;;;;;;;7.15;2.70;;;;;;;21.97;33.95;101803.77;1703918;81;22014;-84
2021/09/03 11:04:13;;;;;;;8.98;2.95;;;;;;;21.97;33.47;101796.32;1704764;83;20978;-85
2021/09/03 11:06:43;;;;;;;6.42;2.90;;;;;;;21.88;33.96;101798.02;1678343;84;21052;-85
2021/09/03 11:09:23;;;;;;;6.40;2.80;;;;;;;21.83;34.30;101799.41;1731570;82;21482;-83
2021/09/03 11:12:05;;;;;;;4.27;2.90;;;;;;;21.85;34.14;101791.70;1732540;81;20959;-80
2021/09/03 11:14:35;;;;;;;4.40;2.52;;;;;;;21.69;34.07;101792.81;1733818;82;21813;-81
2021/09/03 11:17:11;;;;;;;5.53;2.67;;;;;;;21.41;34.97;101798.53;1678263;84;21033;-80
2021/09/03 11:19:47;;;;;;;4.67;2.72;;;;;;;21.16;35.32;101798.31;1689804;82;20847;-88
2021/09/03 11:22:22;;;;;;;7.40;2.80;;;;;;;21.07;35.77;101802.13;1698823;82;21055;-83
2021/09/03 11:25:02;;;;;;;4.15;2.67;;;;;;;21.21;35.94;101794.78;1656779;84;20974;-82
2021/09/03 11:27:29;;;;;;;3.45;2.47;;;;;;;21.28;35.90;101790.59;1678220;84;21058;-83
2021/09/03 11:30:09;;;;;;;7.12;2.80;;;;;;;21.37;35.77;101783.13;1698728;84;21077;-84
2021/09/03 11:32:40;;;;;;;4.47;2.47;;;;;;;21.65;35.88;101778.23;1698676;84;21066;-82
2021/09/03 11:35:12;;;;;;;10.20;3.02;;;;;;;21.87;34.80;101778.33;1698934;83;21015;-79